createdAt,value
2019-02-08T00:00:41.610Z,939.59
2019-02-08T00:01:42.180Z,939.63
2019-02-08T00:02:43.562Z,939.68
2019-02-08T00:03:44.318Z,939.69
2019-02-08T00:04:45.048Z,939.69
2019-02-08T00:05:45.738Z,939.65
2019-02-08T00:06:46.654Z,939.67
2019-02-08T00:07:47.190Z,939.62
2019-02-08T00:08:47.373Z,939.63
2019-02-08T00:09:48.290Z,939.65
2019-02-08T00:10:49.744Z,939.64
2019-02-08T00:11:50.744Z,939.68
2019-02-08T00:12:52.027Z,939.65
2019-02-08T00:13:52.455Z,939.69
2019-02-08T00:14:53.323Z,939.7
2019-02-08T00:15:54.310Z,939.73
2019-02-08T00:16:55.568Z,939.76
2019-02-08T00:17:55.957Z,939.72
2019-02-08T00:18:57.396Z,939.73
2019-02-08T00:19:58.272Z,939.74
2019-02-08T00:20:59.669Z,939.75
2019-02-08T00:22:00.448Z,939.81
2019-02-08T00:23:01.199Z,939.78
2019-02-08T00:24:02.221Z,939.74
2019-02-08T00:25:03.506Z,939.78
2019-02-08T00:26:04.404Z,939.78
2019-02-08T00:27:05.585Z,939.81
2019-02-08T00:28:06.171Z,939.82
2019-02-08T00:29:07.614Z,939.79
2019-02-08T00:30:08.879Z,939.81
2019-02-08T00:31:09.577Z,939.82
2019-02-08T00:32:11.029Z,939.83
2019-02-08T00:33:11.727Z,939.8
2019-02-08T00:34:12.703Z,939.87
2019-02-08T00:35:13.851Z,939.86
2019-02-08T00:36:14.103Z,939.83
2019-02-08T00:37:14.525Z,939.84
2019-02-08T00:38:15.944Z,939.86
2019-02-08T00:39:16.802Z,939.87
2019-02-08T00:40:17.700Z,939.9
2019-02-08T00:41:18.117Z,939.86
2019-02-08T00:42:18.393Z,939.81
2019-02-08T00:43:19.370Z,939.81
2019-02-08T00:44:19.790Z,939.8
2019-02-08T00:45:20.213Z,939.77
2019-02-08T00:46:20.667Z,939.76
2019-02-08T00:47:21.465Z,939.73
2019-02-08T00:48:22.436Z,939.77
2019-02-08T00:49:23.154Z,939.73
2019-02-08T00:50:23.879Z,939.69
2019-02-08T00:51:24.412Z,939.72
2019-02-08T00:52:25.387Z,939.71
2019-02-08T00:53:33.803Z,939.76
2019-02-08T00:53:38.564Z,939.73
2019-02-08T00:54:39.402Z,939.7
2019-02-08T00:55:39.823Z,939.7
2019-02-08T00:56:40.595Z,939.76
2019-02-08T00:57:41.433Z,939.77
2019-02-08T00:58:42.420Z,939.77
2019-02-08T00:59:43.555Z,939.72
2019-02-08T01:00:43.971Z,939.76
2019-02-08T01:01:45.122Z,939.76
2019-02-08T01:02:46.102Z,939.76
2019-02-08T01:03:47.255Z,939.76
2019-02-08T01:04:48.484Z,939.76
2019-02-08T01:05:49.197Z,939.74
2019-02-08T01:06:49.494Z,939.78
2019-02-08T01:07:49.753Z,939.78
2019-02-08T01:08:50.741Z,939.8
2019-02-08T01:09:51.728Z,939.79
2019-02-08T01:10:53.144Z,939.83
2019-02-08T01:11:53.404Z,939.82
2019-02-08T01:12:53.873Z,939.83
2019-02-08T01:13:54.856Z,939.85
2019-02-08T01:14:55.495Z,939.89
2019-02-08T01:15:56.488Z,939.81
2019-02-08T01:16:57.630Z,939.85
2019-02-08T01:17:58.324Z,939.89
2019-02-08T01:18:58.504Z,939.89
2019-02-08T01:19:59.283Z,939.88
2019-02-08T01:20:59.761Z,939.87
2019-02-08T01:22:00.925Z,939.91
2019-02-08T01:23:01.884Z,939.9
2019-02-08T01:24:03.149Z,939.93
2019-02-08T01:25:04.289Z,939.94
2019-02-08T01:26:04.537Z,939.94
2019-02-08T01:27:04.787Z,939.95
2019-02-08T01:28:05.477Z,939.96
2019-02-08T01:29:05.888Z,939.9
2019-02-08T01:30:06.305Z,939.91
2019-02-08T01:31:07.034Z,939.92
2019-02-08T01:32:07.723Z,939.91
2019-02-08T01:33:08.691Z,939.93
2019-02-08T01:34:09.714Z,939.91
2019-02-08T01:35:10.132Z,939.92
2019-02-08T01:36:11.267Z,939.9
2019-02-08T01:37:11.958Z,939.94
2019-02-08T01:38:12.649Z,939.91
2019-02-08T01:39:13.787Z,939.91
2019-02-08T01:40:14.793Z,939.87
2019-02-08T01:41:15.486Z,939.9
2019-02-08T01:42:16.629Z,939.89
2019-02-08T01:43:18.043Z,939.92
2019-02-08T01:44:18.781Z,939.91
2019-02-08T01:45:19.335Z,939.86
2019-02-08T01:46:20.758Z,939.87
2019-02-08T01:47:21.730Z,939.87
2019-02-08T01:48:22.147Z,939.91
2019-02-08T01:49:22.837Z,939.85
2019-02-08T01:50:23.809Z,939.94
2019-02-08T01:51:24.231Z,939.97
2019-02-08T01:52:24.926Z,939.95
2019-02-08T01:53:25.173Z,939.97
2019-02-08T01:54:25.423Z,939.96
2019-02-08T01:55:26.821Z,939.94
2019-02-08T01:56:27.958Z,940.01
2019-02-08T01:57:28.937Z,939.96
2019-02-08T01:58:29.353Z,939.98
2019-02-08T01:59:30.049Z,939.94
2019-02-08T02:00:30.744Z,939.99
2019-02-08T02:01:31.992Z,940.02
2019-02-08T02:02:32.968Z,940.01
2019-02-08T02:03:33.674Z,940.01
2019-02-08T02:04:34.376Z,939.99
2019-02-08T02:05:35.524Z,939.97
2019-02-08T02:06:35.792Z,940.02
2019-02-08T02:07:36.263Z,939.99
2019-02-08T02:08:36.523Z,940.02
2019-02-08T02:09:37.659Z,940
2019-02-08T02:10:38.637Z,940
2019-02-08T02:11:39.049Z,940.07
2019-02-08T02:12:39.463Z,940.02
2019-02-08T02:13:40.878Z,940
2019-02-08T02:14:41.574Z,940.04
2019-02-08T02:15:42.991Z,940.03
2019-02-08T02:16:43.411Z,940.02
2019-02-08T02:17:44.381Z,939.99
2019-02-08T02:18:44.799Z,940.03
2019-02-08T02:19:45.491Z,940.05
2019-02-08T02:20:46.625Z,940.05
2019-02-08T02:21:47.594Z,940.04
2019-02-08T02:22:48.330Z,940.05
2019-02-08T02:23:56.434Z,940.05
2019-02-08T02:24:03.056Z,940.04
2019-02-08T02:25:03.755Z,940.05
2019-02-08T02:26:05.025Z,940.11
2019-02-08T02:27:05.743Z,940.11
2019-02-08T02:28:06.000Z,940.14
2019-02-08T02:29:06.693Z,940.16
2019-02-08T02:30:08.110Z,940.17
2019-02-08T02:31:08.668Z,940.15
2019-02-08T02:32:09.222Z,940.18
2019-02-08T02:33:10.324Z,940.15
2019-02-08T02:34:11.301Z,940.17
2019-02-08T02:35:12.008Z,940.17
2019-02-08T02:36:12.981Z,940.17
2019-02-08T02:37:13.234Z,940.16
2019-02-08T02:38:14.244Z,940.19
2019-02-08T02:39:15.152Z,940.24
2019-02-08T02:40:15.863Z,940.21
2019-02-08T02:41:16.126Z,940.19
2019-02-08T02:42:17.096Z,940.15
2019-02-08T02:43:17.357Z,940.15
2019-02-08T02:44:18.599Z,940.17
2019-02-08T02:45:18.988Z,940.18
2019-02-08T02:46:19.710Z,940.15
2019-02-08T02:47:20.545Z,940.16
2019-02-08T02:48:21.268Z,940.14
2019-02-08T02:49:21.691Z,940.17
2019-02-08T02:50:22.125Z,940.12
2019-02-08T02:51:23.381Z,940.16
2019-02-08T02:52:23.631Z,940.16
2019-02-08T02:53:24.183Z,940.17
2019-02-08T02:54:24.745Z,940.17
2019-02-08T02:55:26.190Z,940.16
2019-02-08T02:56:27.210Z,940.14
2019-02-08T02:57:27.905Z,940.15
2019-02-08T02:58:29.170Z,940.14
2019-02-08T02:59:29.983Z,940.18
2019-02-08T03:00:30.712Z,940.15
2019-02-08T03:01:31.435Z,940.19
2019-02-08T03:02:32.133Z,940.21
2019-02-08T03:03:33.102Z,940.19
2019-02-08T03:04:33.825Z,940.21
2019-02-08T03:05:34.779Z,940.23
2019-02-08T03:06:35.205Z,940.24
2019-02-08T03:07:36.180Z,940.23
2019-02-08T03:08:37.153Z,940.17
2019-02-08T03:09:37.633Z,940.24
2019-02-08T03:10:38.158Z,940.2
2019-02-08T03:11:38.710Z,940.23
2019-02-08T03:12:39.697Z,940.18
2019-02-08T03:13:40.394Z,940.19
2019-02-08T03:14:41.095Z,940.21
2019-02-08T03:15:42.309Z,940.17
2019-02-08T03:16:43.290Z,940.2
2019-02-08T03:17:44.040Z,940.2
2019-02-08T03:18:45.027Z,940.21
2019-02-08T03:19:46.190Z,940.25
2019-02-08T03:20:46.903Z,940.25
2019-02-08T03:21:47.898Z,940.25
2019-02-08T03:22:48.891Z,940.25
2019-02-08T03:23:49.429Z,940.28
2019-02-08T03:24:50.401Z,940.27
2019-02-08T03:25:50.782Z,940.29
2019-02-08T03:26:51.505Z,940.26
2019-02-08T03:27:51.925Z,940.26
2019-02-08T03:28:52.894Z,940.28
2019-02-08T03:29:54.461Z,940.2
2019-02-08T03:30:55.438Z,940.24
2019-02-08T03:31:55.913Z,940.24
2019-02-08T03:32:56.560Z,940.28
2019-02-08T03:33:56.781Z,940.32
2019-02-08T03:34:57.195Z,940.29
2019-02-08T03:35:58.596Z,940.29
2019-02-08T03:36:59.302Z,940.27
2019-02-08T03:38:00.016Z,940.28
2019-02-08T03:39:00.432Z,940.27
2019-02-08T03:40:00.679Z,940.26
2019-02-08T03:41:01.410Z,940.25
2019-02-08T03:42:02.257Z,940.27
2019-02-08T03:43:03.390Z,940.29
2019-02-08T03:44:04.371Z,940.31
2019-02-08T03:45:04.632Z,940.31
2019-02-08T03:46:05.232Z,940.31
2019-02-08T03:47:06.054Z,940.3
2019-02-08T03:48:07.024Z,940.31
2019-02-08T03:49:07.479Z,940.31
2019-02-08T03:50:08.740Z,940.35
2019-02-08T03:51:09.549Z,940.34
2019-02-08T03:52:09.801Z,940.32
2019-02-08T03:53:10.220Z,940.33
2019-02-08T03:54:11.192Z,940.31
2019-02-08T03:54:23.222Z,940.31
2019-02-08T03:55:23.666Z,940.29
2019-02-08T03:56:24.974Z,940.26
2019-02-08T03:57:25.669Z,940.22
2019-02-08T03:58:26.087Z,940.23
2019-02-08T03:59:26.778Z,940.27
2019-02-08T04:00:27.763Z,940.24
2019-02-08T04:01:28.071Z,940.26
2019-02-08T04:02:29.061Z,940.27
2019-02-08T04:03:30.031Z,940.31
2019-02-08T04:04:30.311Z,940.27
2019-02-08T04:05:31.450Z,940.22
2019-02-08T04:06:31.984Z,940.22
2019-02-08T04:07:32.680Z,940.27
2019-02-08T04:08:32.927Z,940.29
2019-02-08T04:09:33.932Z,940.24
2019-02-08T04:10:34.497Z,940.29
2019-02-08T04:11:35.469Z,940.3
2019-02-08T04:12:36.438Z,940.33
2019-02-08T04:13:36.853Z,940.34
2019-02-08T04:14:37.655Z,940.35
2019-02-08T04:15:38.659Z,940.36
2019-02-08T04:16:39.627Z,940.33
2019-02-08T04:17:40.046Z,940.3
2019-02-08T04:18:42.357Z,940.33
2019-02-08T04:19:41.588Z,940.32
2019-02-08T04:20:42.728Z,940.36
2019-02-08T04:21:43.561Z,940.36
2019-02-08T04:22:44.808Z,940.33
2019-02-08T04:23:45.803Z,940.37
2019-02-08T04:24:46.939Z,940.34
2019-02-08T04:25:47.911Z,940.33
2019-02-08T04:26:48.618Z,940.31
2019-02-08T04:27:49.601Z,940.33
2019-02-08T04:28:50.739Z,940.35
2019-02-08T04:29:51.710Z,940.34
2019-02-08T04:30:52.865Z,940.32
2019-02-08T04:31:53.841Z,940.32
2019-02-08T04:32:55.115Z,940.31
2019-02-08T04:33:56.370Z,940.33
2019-02-08T04:34:56.619Z,940.27
2019-02-08T04:35:57.758Z,940.25
2019-02-08T04:36:58.857Z,940.27
2019-02-08T04:37:59.576Z,940.25
2019-02-08T04:39:00.839Z,940.22
2019-02-08T04:40:01.545Z,940.23
2019-02-08T04:41:02.253Z,940.27
2019-02-08T04:42:03.508Z,940.23
2019-02-08T04:43:04.481Z,940.25
2019-02-08T04:44:05.181Z,940.25
2019-02-08T04:45:05.904Z,940.33
2019-02-08T04:46:06.863Z,940.3
2019-02-08T04:47:07.829Z,940.27
2019-02-08T04:48:08.965Z,940.27
2019-02-08T04:49:09.689Z,940.29
2019-02-08T04:50:10.400Z,940.22
2019-02-08T04:51:10.660Z,940.22
2019-02-08T04:52:11.351Z,940.22
2019-02-08T04:53:11.607Z,940.24
2019-02-08T04:54:12.644Z,940.23
2019-02-08T04:55:14.064Z,940.26
2019-02-08T04:56:15.178Z,940.26
2019-02-08T04:57:15.876Z,940.2
2019-02-08T04:58:16.122Z,940.22
2019-02-08T04:59:16.572Z,940.17
2019-02-08T05:01:18.124Z,940.26
2019-02-08T05:02:19.087Z,940.29
2019-02-08T05:03:20.333Z,940.31
2019-02-08T05:04:20.748Z,940.3
2019-02-08T05:05:21.280Z,940.25
2019-02-08T05:06:22.676Z,940.23
2019-02-08T05:07:23.360Z,940.21
2019-02-08T05:08:24.045Z,940.24
2019-02-08T05:09:25.090Z,940.2
2019-02-08T05:10:25.608Z,940.22
2019-02-08T05:11:26.848Z,940.24
2019-02-08T05:12:27.542Z,940.23
2019-02-08T05:13:27.792Z,940.19
2019-02-08T05:14:28.226Z,940.25
2019-02-08T05:15:29.192Z,940.27
2019-02-08T05:16:30.089Z,940.27
2019-02-08T05:17:30.503Z,940.27
2019-02-08T05:18:31.202Z,940.25
2019-02-08T05:19:31.906Z,940.28
2019-02-08T05:20:32.874Z,940.26
2019-02-08T05:21:33.558Z,940.25
2019-02-08T05:22:34.259Z,940.21
2019-02-08T05:23:35.234Z,940.19
2019-02-08T05:24:35.923Z,940.23
2019-02-08T05:24:48.954Z,940.23
2019-02-08T05:25:49.958Z,940.28
2019-02-08T05:26:50.379Z,940.24
2019-02-08T05:27:53.151Z,940.27
2019-02-08T05:28:54.148Z,940.26
2019-02-08T05:29:55.124Z,940.27
2019-02-08T05:30:55.820Z,940.25
2019-02-08T05:31:56.224Z,940.26
2019-02-08T05:32:56.930Z,940.26
2019-02-08T05:33:58.006Z,940.27
2019-02-08T05:34:58.422Z,940.27
2019-02-08T05:35:59.325Z,940.25
2019-02-08T05:37:00.014Z,940.21
2019-02-08T05:38:00.972Z,940.22
2019-02-08T05:39:01.211Z,940.19
2019-02-08T05:40:01.898Z,940.23
2019-02-08T05:41:02.419Z,940.26
2019-02-08T05:42:03.381Z,940.26
2019-02-08T05:43:04.353Z,940.26
2019-02-08T05:44:04.622Z,940.24
2019-02-08T05:45:05.590Z,940.22
2019-02-08T05:46:05.990Z,940.24
2019-02-08T05:47:06.958Z,940.25
2019-02-08T05:48:07.639Z,940.26
2019-02-08T05:49:08.598Z,940.27
2019-02-08T05:50:09.118Z,940.27
2019-02-08T05:51:09.538Z,940.3
2019-02-08T05:52:10.233Z,940.26
2019-02-08T05:53:11.193Z,940.36
2019-02-08T05:54:11.879Z,940.3
2019-02-08T05:55:12.582Z,940.29
2019-02-08T05:56:13.408Z,940.3
2019-02-08T05:57:14.093Z,940.33
2019-02-08T05:58:15.222Z,940.33
2019-02-08T05:59:15.673Z,940.33
2019-02-08T06:00:16.808Z,940.34
2019-02-08T06:01:17.046Z,940.34
2019-02-08T06:02:18.177Z,940.32
2019-02-08T06:03:18.482Z,940.31
2019-02-08T06:04:19.487Z,940.36
2019-02-08T06:05:19.892Z,940.31
2019-02-08T06:06:20.555Z,940.32
2019-02-08T06:07:21.267Z,940.27
2019-02-08T06:08:22.234Z,940.3
2019-02-08T06:09:22.486Z,940.32
2019-02-08T06:10:22.736Z,940.36
2019-02-08T06:11:23.700Z,940.36
2019-02-08T06:12:24.389Z,940.35
2019-02-08T06:13:25.651Z,940.31
2019-02-08T06:14:25.905Z,940.28
2019-02-08T06:15:26.432Z,940.34
2019-02-08T06:16:26.980Z,940.29
2019-02-08T06:17:27.815Z,940.31
2019-02-08T06:18:28.794Z,940.28
2019-02-08T06:19:29.215Z,940.32
2019-02-08T06:20:29.640Z,940.33
2019-02-08T06:21:30.053Z,940.33
2019-02-08T06:22:30.738Z,940.36
2019-02-08T06:23:31.425Z,940.37
2019-02-08T06:24:32.393Z,940.33
2019-02-08T06:25:33.358Z,940.34
2019-02-08T06:26:33.907Z,940.34
2019-02-08T06:27:34.601Z,940.36
2019-02-08T06:28:34.840Z,940.34
2019-02-08T06:29:35.263Z,940.39
2019-02-08T06:30:36.228Z,940.39
2019-02-08T06:31:36.929Z,940.41
2019-02-08T06:32:37.911Z,940.43
2019-02-08T06:33:38.599Z,940.4
2019-02-08T06:34:41.189Z,940.43
2019-02-08T06:35:40.237Z,940.39
2019-02-08T06:36:41.346Z,940.38
2019-02-08T06:37:45.186Z,940.37
2019-02-08T06:38:46.163Z,940.41
2019-02-08T06:39:46.407Z,940.45
2019-02-08T06:40:47.541Z,940.39
2019-02-08T06:41:48.505Z,940.42
2019-02-08T06:42:48.764Z,940.36
2019-02-08T06:43:49.899Z,940.34
2019-02-08T06:44:50.865Z,940.38
2019-02-08T06:45:51.556Z,940.33
2019-02-08T06:46:52.678Z,940.4
2019-02-08T06:47:53.216Z,940.41
2019-02-08T06:48:54.227Z,940.38
2019-02-08T06:49:54.916Z,940.43
2019-02-08T06:50:55.603Z,940.44
2019-02-08T06:51:56.865Z,940.42
2019-02-08T06:52:57.338Z,940.41
2019-02-08T06:53:58.303Z,940.42
2019-02-08T06:54:58.991Z,940.35
2019-02-08T06:56:00.063Z,940.38
2019-02-08T06:57:01.016Z,940.41
2019-02-08T06:58:01.747Z,940.41
2019-02-08T06:59:02.162Z,940.44
2019-02-08T07:00:02.904Z,940.46
2019-02-08T07:01:03.147Z,940.47
2019-02-08T07:02:04.112Z,940.47
2019-02-08T07:03:05.340Z,940.45
2019-02-08T07:04:06.867Z,940.4
2019-02-08T07:05:07.748Z,940.4
2019-02-08T07:06:08.742Z,940.41
2019-02-08T07:07:09.515Z,940.39
2019-02-08T07:08:10.413Z,940.42
2019-02-08T07:09:11.107Z,940.46
2019-02-08T07:10:12.241Z,940.45
2019-02-08T07:11:12.936Z,940.46
2019-02-08T07:12:13.936Z,940.49
2019-02-08T07:13:14.482Z,940.52
2019-02-08T07:14:14.891Z,940.53
2019-02-08T07:15:15.600Z,940.53
2019-02-08T07:16:16.792Z,940.49
2019-02-08T07:17:17.897Z,940.52
2019-02-08T07:18:18.622Z,940.49
2019-02-08T07:19:19.125Z,940.52
2019-02-08T07:20:19.447Z,940.51
2019-02-08T07:21:20.446Z,940.52
2019-02-08T07:22:21.180Z,940.49
2019-02-08T07:23:22.325Z,940.52
2019-02-08T07:24:23.297Z,940.51
2019-02-08T07:25:23.710Z,940.52
2019-02-08T07:26:24.524Z,940.52
2019-02-08T07:27:25.168Z,940.5
2019-02-08T07:28:27.044Z,940.52
2019-02-08T07:29:27.567Z,940.51
2019-02-08T07:30:28.644Z,940.51
2019-02-08T07:31:29.059Z,940.49
2019-02-08T07:32:29.479Z,940.56
2019-02-08T07:33:30.170Z,940.55
2019-02-08T07:34:31.292Z,940.55
2019-02-08T07:35:32.107Z,940.57
2019-02-08T07:36:33.149Z,940.63
2019-02-08T07:37:34.045Z,940.58
2019-02-08T07:38:35.149Z,940.61
2019-02-08T07:39:36.193Z,940.59
2019-02-08T07:40:36.616Z,940.64
2019-02-08T07:41:37.590Z,940.64
2019-02-08T07:42:38.555Z,940.72
2019-02-08T07:43:39.527Z,940.73
2019-02-08T07:44:40.074Z,940.81
2019-02-08T07:45:40.595Z,940.84
2019-02-08T07:46:41.041Z,940.9
2019-02-08T07:47:41.883Z,940.93
2019-02-08T07:48:42.300Z,941
2019-02-08T07:49:43.135Z,940.99
2019-02-08T07:50:44.153Z,940.95
2019-02-08T07:51:44.889Z,940.94
2019-02-08T07:52:46.195Z,940.94
2019-02-08T07:53:46.419Z,940.94
2019-02-08T07:54:46.884Z,940.91
2019-02-08T07:55:47.645Z,940.92
2019-02-08T07:56:49.070Z,940.93
2019-02-08T07:57:50.025Z,940.93
2019-02-08T07:58:50.480Z,940.95
2019-02-08T07:59:51.698Z,940.95
2019-02-08T08:00:52.399Z,940.99
2019-02-08T08:01:52.826Z,940.96
2019-02-08T08:02:53.971Z,941
2019-02-08T08:04:01.957Z,940.97
2019-02-08T08:04:08.302Z,940.93
2019-02-08T08:05:08.857Z,941
2019-02-08T08:06:10.113Z,940.95
2019-02-08T08:07:10.858Z,940.95
2019-02-08T08:08:11.655Z,940.92
2019-02-08T08:09:12.050Z,940.98
2019-02-08T08:10:13.033Z,941.04
2019-02-08T08:11:13.821Z,941.08
2019-02-08T08:12:14.250Z,941.08
2019-02-08T08:13:15.436Z,941.03
2019-02-08T08:14:16.138Z,940.99
2019-02-08T08:15:16.538Z,940.96
2019-02-08T08:16:17.962Z,940.99
2019-02-08T08:17:19.187Z,941
2019-02-08T08:18:20.072Z,940.97
2019-02-08T08:19:21.048Z,940.9
2019-02-08T08:20:21.774Z,940.91
2019-02-08T08:21:22.752Z,940.88
2019-02-08T08:22:23.747Z,940.91
2019-02-08T08:23:24.727Z,940.89
2019-02-08T08:24:25.964Z,940.91
2019-02-08T08:25:34.348Z,941
2019-02-08T08:25:38.769Z,941.01
2019-02-08T08:26:39.624Z,941
2019-02-08T08:27:40.553Z,941
2019-02-08T08:28:41.703Z,941.06
2019-02-08T08:29:44.184Z,941.03
2019-02-08T08:29:55.403Z,941.02
2019-02-08T08:30:08.140Z,941
2019-02-08T08:31:07.198Z,941.02
2019-02-08T08:32:08.199Z,941
2019-02-08T08:33:08.904Z,940.92
2019-02-08T08:34:09.604Z,940.88
2019-02-08T08:35:10.136Z,940.9
2019-02-08T08:36:11.119Z,940.87
2019-02-08T08:37:12.095Z,940.8
2019-02-08T08:38:12.518Z,940.8
2019-02-08T08:39:12.945Z,940.77
2019-02-08T08:40:13.401Z,940.72
2019-02-08T08:41:14.546Z,940.81
2019-02-08T08:42:15.321Z,940.83
2019-02-08T08:43:15.764Z,940.79
2019-02-08T08:44:16.200Z,940.72
2019-02-08T08:45:17.177Z,940.78
2019-02-08T08:46:17.948Z,940.82
2019-02-08T08:47:19.783Z,940.88
2019-02-08T08:48:20.299Z,940.9
2019-02-08T08:49:21.006Z,940.96
2019-02-08T08:50:21.434Z,940.96
2019-02-08T08:51:22.435Z,940.92
2019-02-08T08:52:23.419Z,940.95
2019-02-08T08:53:24.120Z,940.9
2019-02-08T08:54:25.268Z,940.9
2019-02-08T08:55:26.105Z,940.9
2019-02-08T08:56:27.225Z,940.9
2019-02-08T08:57:28.223Z,940.9
2019-02-08T08:58:28.636Z,940.88
2019-02-08T08:59:29.751Z,940.89
2019-02-08T09:00:31.101Z,940.88
2019-02-08T09:01:33.708Z,940.83
2019-02-08T09:01:44.279Z,940.83
2019-02-08T09:02:46.615Z,940.79
2019-02-08T09:02:58.712Z,940.78
2019-02-08T09:03:10.511Z,940.76
2019-02-08T09:03:21.634Z,940.75
2019-02-08T09:04:23.673Z,940.77
2019-02-08T09:05:24.453Z,940.63
2019-02-08T09:06:25.124Z,940.67
2019-02-08T09:07:25.386Z,940.67
2019-02-08T09:08:26.080Z,940.72
2019-02-08T09:09:26.510Z,940.65
2019-02-08T09:10:28.304Z,940.68
2019-02-08T09:11:29.139Z,940.62
2019-02-08T09:12:29.842Z,940.58
2019-02-08T09:13:30.260Z,940.56
2019-02-08T09:14:30.592Z,940.56
2019-02-08T09:15:31.731Z,940.54
2019-02-08T09:16:32.787Z,940.54
2019-02-08T09:17:35.010Z,940.52
2019-02-08T09:17:46.162Z,940.52
2019-02-08T09:17:59.027Z,940.5
2019-02-08T09:18:11.612Z,940.51
2019-02-08T09:18:23.293Z,940.49
2019-02-08T09:19:23.834Z,940.53
2019-02-08T09:20:24.843Z,940.51
2019-02-08T09:21:25.819Z,940.53
2019-02-08T09:22:26.238Z,940.51
2019-02-08T09:23:26.663Z,940.51
2019-02-08T09:24:27.121Z,940.5
2019-02-08T09:25:27.823Z,940.52
2019-02-08T09:26:28.523Z,940.47
2019-02-08T09:27:29.221Z,940.43
2019-02-08T09:28:29.472Z,940.42
2019-02-08T09:29:30.695Z,940.44
2019-02-08T09:30:31.798Z,940.4
2019-02-08T09:31:32.244Z,940.41
2019-02-08T09:32:33.392Z,940.38
2019-02-08T09:33:34.398Z,940.42
2019-02-08T09:34:35.098Z,940.46
2019-02-08T09:35:36.091Z,940.49
2019-02-08T09:36:36.788Z,940.49
2019-02-08T09:37:38.223Z,940.46
2019-02-08T09:38:39.444Z,940.46
2019-02-08T09:39:40.381Z,940.45
2019-02-08T09:40:40.802Z,940.44
2019-02-08T09:41:41.538Z,940.46
2019-02-08T09:42:42.238Z,940.45
2019-02-08T09:43:42.433Z,940.49
2019-02-08T09:44:42.869Z,940.48
2019-02-08T09:45:43.291Z,940.47
2019-02-08T09:46:45.303Z,940.45
2019-02-08T09:46:56.513Z,940.45
2019-02-08T09:47:58.339Z,940.46
2019-02-08T09:48:58.756Z,940.53
2019-02-08T09:49:59.463Z,940.54
2019-02-08T09:51:01.342Z,940.5
2019-02-08T09:51:12.677Z,940.5
2019-02-08T09:52:12.941Z,940.5
2019-02-08T09:53:13.941Z,940.48
2019-02-08T09:54:14.381Z,940.5
2019-02-08T09:55:15.536Z,940.55
2019-02-08T09:56:16.237Z,940.59
2019-02-08T09:57:16.946Z,940.55
2019-02-08T09:58:17.371Z,940.54
2019-02-08T09:59:17.805Z,940.56
2019-02-08T10:00:18.949Z,940.57
2019-02-08T10:01:19.372Z,940.6
2019-02-08T10:02:20.085Z,940.55
2019-02-08T10:03:21.069Z,940.56
2019-02-08T10:04:21.799Z,940.54
2019-02-08T10:05:22.783Z,940.58
2019-02-08T10:06:25.142Z,940.57
2019-02-08T10:07:25.605Z,940.59
2019-02-08T10:08:25.607Z,940.61
2019-02-08T10:09:27.643Z,940.53
2019-02-08T10:10:28.210Z,940.54
2019-02-08T10:11:30.952Z,940.56
2019-02-08T10:11:41.482Z,940.55
2019-02-08T10:12:43.336Z,940.58
2019-02-08T10:13:43.463Z,940.61
2019-02-08T10:14:43.889Z,940.62
2019-02-08T10:15:44.869Z,940.56
2019-02-08T10:16:45.575Z,940.57
2019-02-08T10:17:46.280Z,940.56
2019-02-08T10:18:48.278Z,940.55
2019-02-08T10:19:02.271Z,940.55
2019-02-08T10:20:01.129Z,940.55
2019-02-08T10:21:01.577Z,940.52
2019-02-08T10:22:03.078Z,940.55
2019-02-08T10:23:03.548Z,940.58
2019-02-08T10:24:03.981Z,940.6
2019-02-08T10:25:04.993Z,940.59
2019-02-08T10:26:06.016Z,940.58
2019-02-08T10:27:06.723Z,940.61
2019-02-08T10:28:07.425Z,940.57
2019-02-08T10:29:07.854Z,940.48
2019-02-08T10:30:08.988Z,940.52
2019-02-08T10:31:09.711Z,940.5
2019-02-08T10:32:10.581Z,940.48
2019-02-08T10:33:11.010Z,940.47
2019-02-08T10:34:11.720Z,940.45
2019-02-08T10:35:13.126Z,940.44
2019-02-08T10:36:13.554Z,940.43
2019-02-08T10:37:14.103Z,940.39
2019-02-08T10:38:14.785Z,940.41
2019-02-08T10:39:15.955Z,940.35
2019-02-08T10:40:16.807Z,940.35
2019-02-08T10:41:18.147Z,940.3
2019-02-08T10:42:18.854Z,940.26
2019-02-08T10:43:19.848Z,940.27
2019-02-08T10:44:21.659Z,940.23
2019-02-08T10:45:21.935Z,940.23
2019-02-08T10:46:23.013Z,940.18
2019-02-08T10:47:24.893Z,940.2
2019-02-08T10:48:25.877Z,940.18
2019-02-08T10:49:27.194Z,940.2
2019-02-08T10:50:27.470Z,940.18
2019-02-08T10:51:28.388Z,940.19
2019-02-08T10:52:29.542Z,940.2
2019-02-08T10:53:30.698Z,940.22
2019-02-08T10:54:31.406Z,940.2
2019-02-08T10:55:32.766Z,940.16
2019-02-08T10:56:34.806Z,940.18
2019-02-08T10:57:34.601Z,940.15
2019-02-08T10:58:34.933Z,940.15
2019-02-08T10:59:35.361Z,940.17
2019-02-08T11:00:36.187Z,940.16
2019-02-08T11:01:42.277Z,940.2
2019-02-08T11:01:49.224Z,940.16
2019-02-08T11:02:50.432Z,940.17
2019-02-08T11:03:51.349Z,940.14
2019-02-08T11:04:51.930Z,940.1
2019-02-08T11:05:52.960Z,940.09
2019-02-08T11:06:53.958Z,940.06
2019-02-08T11:07:55.044Z,940.04
2019-02-08T11:08:55.480Z,940.06
2019-02-08T11:09:56.947Z,940.04
2019-02-08T11:10:57.739Z,940.04
2019-02-08T11:11:58.224Z,940.02
2019-02-08T11:12:58.543Z,940
2019-02-08T11:13:59.034Z,939.99
2019-02-08T11:14:59.766Z,939.96
2019-02-08T11:16:00.826Z,939.96
2019-02-08T11:17:01.371Z,939.94
2019-02-08T11:18:01.866Z,939.91
2019-02-08T11:19:02.734Z,939.9
2019-02-08T11:20:03.443Z,939.91
2019-02-08T11:21:03.911Z,939.94
2019-02-08T11:22:05.118Z,939.93
2019-02-08T11:23:06.074Z,939.93
2019-02-08T11:24:07.062Z,939.9
2019-02-08T11:25:07.850Z,939.88
2019-02-08T11:26:08.578Z,939.83
2019-02-08T11:27:09.025Z,939.86
2019-02-08T11:28:10.935Z,939.83
2019-02-08T11:29:11.362Z,939.83
2019-02-08T11:30:12.406Z,939.86
2019-02-08T11:31:13.210Z,939.79
2019-02-08T11:32:14.175Z,939.78
2019-02-08T11:33:14.453Z,939.74
2019-02-08T11:34:15.218Z,939.76
2019-02-08T11:35:15.688Z,939.74
2019-02-08T11:36:16.531Z,939.72
2019-02-08T11:37:17.522Z,939.71
2019-02-08T11:38:18.675Z,939.71
2019-02-08T11:39:19.155Z,939.73
2019-02-08T11:40:20.152Z,939.67
2019-02-08T11:41:21.415Z,939.63
2019-02-08T11:42:22.398Z,939.6
2019-02-08T11:43:22.840Z,939.58
2019-02-08T11:44:23.108Z,939.6
2019-02-08T11:45:23.445Z,939.57
2019-02-08T11:46:23.871Z,939.51
2019-02-08T11:47:24.299Z,939.52
2019-02-08T11:48:24.731Z,939.46
2019-02-08T11:49:25.067Z,939.49
2019-02-08T11:50:25.494Z,939.51
2019-02-08T11:51:26.015Z,939.51
2019-02-08T11:52:26.793Z,939.49
2019-02-08T11:53:27.203Z,939.47
2019-02-08T11:54:27.790Z,939.49
2019-02-08T11:55:29.966Z,939.47
2019-02-08T11:56:31.404Z,939.42
2019-02-08T11:56:42.795Z,939.4
2019-02-08T11:57:43.162Z,939.44
2019-02-08T11:58:44.147Z,939.39
2019-02-08T11:59:44.910Z,939.38
2019-02-08T12:00:45.910Z,939.39
2019-02-08T12:01:46.337Z,939.39
2019-02-08T12:02:46.772Z,939.38
2019-02-08T12:03:47.942Z,939.39
2019-02-08T12:04:49.252Z,939.38
2019-02-08T12:05:49.716Z,939.36
2019-02-08T12:06:50.182Z,939.37
2019-02-08T12:07:50.976Z,939.4
2019-02-08T12:08:52.239Z,939.33
2019-02-08T12:09:52.937Z,939.3
2019-02-08T12:10:53.436Z,939.3
2019-02-08T12:11:54.430Z,939.25
2019-02-08T12:12:54.863Z,939.2
2019-02-08T12:13:55.849Z,939.19
2019-02-08T12:14:56.286Z,939.2
2019-02-08T12:15:56.989Z,939.15
2019-02-08T12:16:57.701Z,939.16
2019-02-08T12:17:59.897Z,939.15
2019-02-08T12:18:10.405Z,939.17
2019-02-08T12:19:11.301Z,939.13
2019-02-08T12:20:12.729Z,939.13
2019-02-08T12:21:13.441Z,939.16
2019-02-08T12:22:13.871Z,939.12
2019-02-08T12:23:14.448Z,939.13
2019-02-08T12:24:16.330Z,939.13